TimeCST,TemperatureF,Dew PointF,Humidity,Sea Level PressureIn,VisibilityMPH,Wind Direction,Wind SpeedMPH,Gust SpeedMPH,PrecipitationIn,Events,Conditions,WindDirDegrees,DateUTC
12:15 AM,31.1,18.7,60,30.34,10.0,WNW,8.1,-,N/A,,Clear,290,2012-11-24 06:15:00
12:35 AM,31.1,17.8,58,30.34,10.0,WNW,8.1,-,N/A,,Clear,300,2012-11-24 06:35:00
12:55 AM,31.1,17.8,58,30.33,10.0,WNW,8.1,-,N/A,,Clear,300,2012-11-24 06:55:00
1:35 AM,30.9,17.1,57,30.33,10.0,WNW,8.1,-,N/A,,Clear,300,2012-11-24 07:35:00
2:15 AM,30.2,17.4,59,30.33,10.0,WNW,6.9,-,N/A,,Clear,300,2012-11-24 08:15:00
2:55 AM,29.3,17.4,61,30.33,10.0,WNW,5.8,-,N/A,,Clear,300,2012-11-24 08:55:00
3:15 AM,28.8,18.0,64,30.34,10.0,WNW,9.2,-,N/A,,Clear,290,2012-11-24 09:15:00
3:35 AM,28.6,18.3,65,30.33,10.0,West,6.9,-,N/A,,Clear,280,2012-11-24 09:35:00
3:55 AM,27.3,18.3,69,30.33,10.0,West,8.1,-,N/A,,Clear,280,2012-11-24 09:55:00
4:15 AM,28.0,18.3,67,30.33,10.0,WNW,8.1,-,N/A,,Clear,300,2012-11-24 10:15:00
4:35 AM,27.7,18.1,67,30.33,10.0,WNW,6.9,-,N/A,,Clear,290,2012-11-24 10:35:00
4:55 AM,25.5,18.7,75,30.33,10.0,West,5.8,-,N/A,,Clear,280,2012-11-24 10:55:00
5:15 AM,27.3,19.4,72,30.33,10.0,WNW,5.8,-,N/A,,Clear,300,2012-11-24 11:15:00
5:35 AM,26.6,19.4,74,30.33,10.0,WNW,3.5,-,N/A,,Clear,300,2012-11-24 11:35:00
5:55 AM,25.7,19.4,77,30.33,10.0,West,3.5,-,N/A,,Clear,280,2012-11-24 11:55:00
9:50 AM,30.2,17.6,60,30.35,10.0,NW,6.9,-,N/A,,Scattered Clouds,310,2012-11-24 15:50:00
11:50 AM,35.6,19.4,52,30.31,10.0,WSW,5.8,-,N/A,,Scattered Clouds,250,2012-11-24 17:50:00
12:50 PM,35.6,19.4,52,30.27,10.0,WSW,5.8,-,N/A,,Mostly Cloudy,240,2012-11-24 18:50:00
1:50 PM,37.4,17.6,45,30.24,10.0,WSW,5.8,-,N/A,,Scattered Clouds,250,2012-11-24 19:50:00
2:50 PM,37.4,17.6,45,30.22,10.0,SSW,6.9,-,N/A,,Scattered Clouds,200,2012-11-24 20:50:00
4:50 PM,35.6,17.6,48,30.17,10.0,SSE,5.8,-,N/A,,Mostly Cloudy,160,2012-11-24 22:50:00
5:50 PM,32.0,21.2,64,30.15,10.0,SSE,9.2,-,N/A,,Mostly Cloudy,160,2012-11-24 23:50:00
6:50 PM,30.2,21.2,69,30.12,10.0,SE,9.2,-,N/A,,Mostly Cloudy,140,2012-11-25 00:50:00
7:50 PM,32.0,23.0,69,30.10,10.0,SE,11.5,-,N/A,,Mostly Cloudy,140,2012-11-25 01:50:00
8:50 PM,32.0,23.0,69,30.08,10.0,SSE,11.5,-,N/A,,Mostly Cloudy,160,2012-11-25 02:50:00
9:15 PM,33.8,22.1,62,30.07,10.0,SE,8.1,-,N/A,,Clear,140,2012-11-25 03:15:00
9:35 PM,34.0,21.7,61,30.06,10.0,SE,8.1,-,N/A,,Clear,140,2012-11-25 03:35:00
9:50 PM,33.8,21.2,60,30.05,10.0,South,11.5,-,N/A,,Mostly Cloudy,170,2012-11-25 03:50:00
9:55 PM,34.0,21.9,61,30.06,10.0,SSE,3.5,-,N/A,,Clear,160,2012-11-25 03:55:00
10:15 PM,34.7,22.1,60,30.06,10.0,SSE,4.6,-,N/A,,Clear,160,2012-11-25 04:15:00
10:35 PM,34.7,22.8,62,30.05,10.0,SSE,4.6,-,N/A,,Clear,150,2012-11-25 04:35:00
10:55 PM,33.3,23.5,68,30.05,10.0,Calm,Calm,-,N/A,,Clear,0,2012-11-25 04:55:00
11:15 PM,32.9,23.4,68,30.04,10.0,ESE,3.5,-,N/A,,Clear,120,2012-11-25 05:15:00
11:35 PM,32.9,24.6,72,30.03,10.0,SE,6.9,-,N/A,,Clear,130,2012-11-25 05:35:00
11:55 PM,32.9,25.3,74,30.03,10.0,SE,4.6,-,N/A,,Clear,140,2012-11-25 05:55:00